Time;durP1;ratioP1;P1;durP2;ratioP2;P2;SDS_P1;SDS_P2;PMS_P1;PMS_P2;Temp;Humidity;BMP_temperature;BMP_pressure;BME280_temperature;BME280_humidity;BME280_pressure;Samples;Min_cycle;Max_cycle;Signal;HPM_P1;HPM_P2
2022/10/13 00:00:42;;;;;;;4.68;2.70;;;;;;;8.48;80.16;100052.16;5074738;28;20046;-67
2022/10/13 00:03:08;;;;;;;4.55;3.00;;;;;;;8.44;79.66;100048.72;5102167;28;20313;-67
2022/10/13 00:05:34;;;;;;;5.00;2.35;;;;;;;8.41;80.09;100056.50;5084905;28;20047;-66
2022/10/13 00:08:00;;;;;;;8.25;3.05;;;;;;;8.44;80.13;100053.91;5103656;28;20034;-67
2022/10/13 00:10:26;;;;;;;7.93;3.28;;;;;;;8.41;79.49;100049.59;5090532;28;20033;-66
2022/10/13 00:12:52;;;;;;;4.28;2.78;;;;;;;8.41;79.42;100062.50;5093535;28;20368;-66
2022/10/13 00:15:18;;;;;;;5.13;2.95;;;;;;;8.35;79.57;100048.78;5100314;28;20028;-66
2022/10/13 00:17:44;;;;;;;7.75;3.30;;;;;;;8.28;80.71;100058.31;5092309;28;20028;-66
2022/10/13 00:20:10;;;;;;;5.07;2.80;;;;;;;8.30;80.11;100064.28;5084926;28;20028;-66
2022/10/13 00:22:36;;;;;;;4.30;3.03;;;;;;;8.35;80.32;100064.25;5092279;28;20031;-67
2022/10/13 00:25:03;;;;;;;4.78;2.65;;;;;;;8.34;79.58;100067.69;5093845;28;20035;-67
2022/10/13 00:27:29;;;;;;;6.18;2.80;;;;;;;8.29;80.33;100058.28;5098899;28;20028;-67
2022/10/13 00:29:55;;;;;;;5.30;2.70;;;;;;;8.28;80.08;100063.47;5085713;28;20028;-68
2022/10/13 00:32:22;;;;;;;4.85;2.80;;;;;;;8.32;80.40;100066.88;5104436;28;20107;-66
2022/10/13 00:34:48;;;;;;;4.78;2.70;;;;;;;8.29;80.02;100067.75;5087584;28;20047;-66
2022/10/13 00:37:13;;;;;;;5.93;3.28;;;;;;;8.26;79.68;100057.44;5096220;28;20031;-66
2022/10/13 00:39:39;;;;;;;4.60;2.97;;;;;;;8.20;79.95;100062.66;5097000;28;20064;-66
2022/10/13 00:42:06;;;;;;;5.57;2.80;;;;;;;8.31;79.97;100071.19;5086332;28;20170;-65
2022/10/13 00:45:11;;;;;;;5.68;2.95;;;;;;;8.20;79.94;100066.06;5104150;28;20040;-67
2022/10/13 00:47:44;;;;;;;4.28;2.63;;;;;;;8.10;80.45;100062.69;5102383;28;20236;-67
2022/10/13 00:50:13;;;;;;;5.00;2.83;;;;;;;7.98;80.99;100052.44;5083498;28;20340;-65
2022/10/13 00:52:41;;;;;;;4.10;2.85;;;;;;;7.98;81.02;100057.59;5099175;28;20031;-65
2022/10/13 00:55:10;;;;;;;4.85;2.83;;;;;;;7.94;80.74;100079.94;5093160;28;20029;-67
2022/10/13 00:57:43;;;;;;;4.97;3.05;;;;;;;7.78;81.56;100050.81;5089852;28;20134;-66
2022/10/13 01:00:09;;;;;;;4.53;2.60;;;;;;;7.93;81.76;100083.38;5100445;28;20265;-67
2022/10/13 01:02:37;;;;;;;3.92;2.97;;;;;;;7.86;81.19;100075.69;5083982;28;20020;-66
2022/10/13 01:05:05;;;;;;;4.63;2.60;;;;;;;7.85;82.05;100068.81;5102683;28;20035;-67
2022/10/13 01:07:31;;;;;;;5.55;3.00;;;;;;;7.92;81.21;100089.44;5100396;28;20028;-66
2022/10/13 01:09:59;;;;;;;6.93;2.88;;;;;;;7.85;82.16;100087.75;5094799;28;20035;-66
2022/10/13 01:12:36;;;;;;;5.10;3.05;;;;;;;7.82;81.36;100084.31;5088170;28;20304;-65
2022/10/13 01:15:21;;;;;;;3.63;2.78;;;;;;;7.78;81.67;100086.91;5091080;28;20027;-66
2022/10/13 01:17:50;;;;;;;5.25;2.53;;;;;;;7.81;81.46;100086.03;5104250;28;20354;-66
2022/10/13 01:20:30;;;;;;;3.13;2.40;;;;;;;7.80;81.91;100091.19;5083726;28;20032;-66
2022/10/13 01:23:05;;;;;;;5.22;2.60;;;;;;;7.73;81.15;100080.88;5092218;28;20069;-66
2022/10/13 01:26:09;;;;;;;4.13;2.80;;;;;;;7.85;82.12;100086.88;5097157;28;20308;-66
2022/10/13 01:28:53;;;;;;;4.18;2.53;;;;;;;7.81;81.01;100086.03;5088994;28;20033;-65
2022/10/13 01:31:37;;;;;;;6.00;2.80;;;;;;;7.73;81.78;100082.63;5085027;28;20051;-66
2022/10/13 01:34:15;;;;;;;5.78;2.50;;;;;;;7.74;81.32;100067.16;5092791;28;20044;-67
2022/10/13 01:36:49;;;;;;;6.53;3.08;;;;;;;7.91;81.46;100081.72;5092454;28;20371;-67
2022/10/13 01:39:39;;;;;;;4.47;2.90;;;;;;;7.96;80.42;100085.09;5084764;28;20059;-67
2022/10/13 01:42:31;;;;;;;3.85;3.05;;;;;;;7.82;81.12;100059.38;5084942;28;20028;-67
2022/10/13 01:45:01;;;;;;;5.18;3.15;;;;;;;7.82;80.89;100066.25;5083187;28;20024;-66
2022/10/13 01:47:32;;;;;;;4.90;3.17;;;;;;;7.86;81.04;100068.81;5094609;28;20024;-66
2022/10/13 01:50:00;;;;;;;7.33;3.40;;;;;;;8.01;80.16;100088.53;5088565;28;20024;-68
2022/10/13 01:52:32;;;;;;;6.43;3.40;;;;;;;8.04;80.29;100090.25;5086063;28;20428;-66
2022/10/13 01:55:04;;;;;;;;;;;;;;;8.03;80.24;100085.94;5103901;28;20020;-66
2022/10/13 01:57:30;;;;;;;;;;;;;;;7.97;80.68;100093.69;5103717;28;19915;-67
2022/10/13 01:59:58;;;;;;;4.40;3.00;;;;;;;7.91;81.00;100092.03;5087617;28;19915;-66
2022/10/13 02:02:47;;;;;;;5.85;3.20;;;;;;;7.88;80.88;100098.03;5082874;28;20435;-66
2022/10/13 02:05:33;;;;;;;5.25;2.78;;;;;;;7.87;80.64;100082.56;5092679;28;20032;-66
2022/10/13 02:08:09;;;;;;;4.85;3.03;;;;;;;7.87;81.23;100080.84;5085314;28;20024;-67
2022/10/13 02:10:46;;;;;;;4.70;3.03;;;;;;;7.91;80.32;100098.03;5092886;28;20040;-66
2022/10/13 02:13:16;;;;;;;6.05;3.10;;;;;;;7.81;80.91;100080.88;5088223;28;20240;-66
2022/10/13 02:15:52;;;;;;;5.70;3.10;;;;;;;7.88;80.24;100082.56;5106014;28;20051;-67
2022/10/13 02:18:22;;;;;;;4.85;3.15;;;;;;;7.96;80.58;100103.16;5088565;28;20074;-67
2022/10/13 02:20:49;;;;;;;4.60;3.03;;;;;;;8.02;80.74;100107.44;5101314;28;20035;-67
2022/10/13 02:23:17;;;;;;;5.43;3.33;;;;;;;8.03;80.04;100107.44;5105655;28;20027;-67
2022/10/13 02:25:44;;;;;;;6.10;2.95;;;;;;;7.99;80.46;100104.88;5105910;28;20066;-67
2022/10/13 02:28:09;;;;;;;6.28;3.25;;;;;;;7.98;79.84;100109.19;5106534;28;20028;-67
2022/10/13 02:30:38;;;;;;;7.25;3.17;;;;;;;7.90;80.29;100106.63;5086387;28;20032;-66
2022/10/13 02:33:04;;;;;;;5.18;2.50;;;;;;;7.95;80.26;100106.59;5096523;28;20032;-67
2022/10/13 02:35:31;;;;;;;5.07;2.97;;;;;;;7.99;80.52;100112.59;5106931;28;20024;-66
2022/10/13 02:37:57;;;;;;;4.63;2.83;;;;;;;7.98;80.69;100119.50;5099671;28;20328;-66
2022/10/13 02:40:23;;;;;;;5.88;2.80;;;;;;;7.99;79.93;100110.03;5088707;28;20047;-67
2022/10/13 02:42:48;;;;;;;7.40;2.97;;;;;;;7.93;79.98;100106.59;5106986;28;20058;-67
2022/10/13 02:45:14;;;;;;;5.63;3.35;;;;;;;7.95;80.16;100115.22;5088827;28;20021;-66
2022/10/13 02:47:39;;;;;;;7.80;3.33;;;;;;;7.94;81.26;100116.06;5098208;28;20050;-66
2022/10/13 02:50:06;;;;;;;6.20;3.00;;;;;;;7.98;80.61;100111.75;5097233;28;20028;-66
2022/10/13 02:52:31;;;;;;;5.78;2.70;;;;;;;7.94;79.89;100118.63;5089669;28;20040;-67
2022/10/13 02:54:57;;;;;;;4.35;3.00;;;;;;;7.93;79.87;100111.75;5106495;28;20073;-66
2022/10/13 02:57:22;;;;;;;6.38;3.03;;;;;;;7.84;80.33;100100.63;5086998;28;20024;-67
2022/10/13 02:59:48;;;;;;;5.57;2.90;;;;;;;7.98;80.19;100119.50;5099097;28;20271;-67
2022/10/13 03:02:14;;;;;;;5.75;3.65;;;;;;;7.94;80.29;100112.63;5096976;28;20036;-68
2022/10/13 03:04:40;;;;;;;4.10;3.50;;;;;;;7.87;81.01;100127.25;5090350;28;20024;-68
2022/10/13 03:07:06;;;;;;;7.40;3.25;;;;;;;7.86;80.93;100128.13;5098702;28;20031;-67
2022/10/13 03:09:32;;;;;;;6.32;3.67;;;;;;;7.82;81.12;100113.50;5085932;28;20328;-67
2022/10/13 03:11:57;;;;;;;7.43;4.75;;;;;;;7.90;80.64;100118.66;5086013;28;20059;-67
2022/10/13 03:14:23;;;;;;;5.55;3.20;;;;;;;7.91;80.62;100120.38;5085624;28;20028;-67
2022/10/13 03:16:49;;;;;;;7.47;3.75;;;;;;;7.90;80.87;100131.56;5091535;28;20024;-67
2022/10/13 03:19:14;;;;;;;6.07;3.75;;;;;;;7.85;81.26;100129.00;5104395;28;20061;-67
2022/10/13 03:21:40;;;;;;;5.22;3.88;;;;;;;7.87;80.35;100129.00;5085679;28;20166;-67
2022/10/13 03:24:06;;;;;;;6.95;4.30;;;;;;;7.84;80.77;100122.13;5087891;28;20040;-67
2022/10/13 03:26:32;;;;;;;6.47;3.72;;;;;;;7.92;80.19;100124.66;5085241;28;20066;-67
2022/10/13 03:28:58;;;;;;;5.85;3.78;;;;;;;7.92;80.17;100129.81;5092432;28;20028;-66
2022/10/13 03:31:24;;;;;;;5.18;3.85;;;;;;;7.92;80.36;100124.66;5103457;28;20066;-66
2022/10/13 03:33:50;;;;;;;7.35;3.65;;;;;;;7.88;80.27;100117.78;5097586;28;20040;-66
2022/10/13 03:36:16;;;;;;;4.38;3.58;;;;;;;7.99;80.62;100130.66;5105658;28;20073;-66
2022/10/13 03:38:41;;;;;;;5.07;3.97;;;;;;;8.03;80.69;100133.22;5092552;28;20028;-67
2022/10/13 03:41:12;;;;;;;7.25;4.35;;;;;;;7.90;80.52;100118.66;5084061;28;20118;-66
2022/10/13 03:43:39;;;;;;;5.10;3.70;;;;;;;8.04;80.04;100132.38;5089007;28;20062;-65
2022/10/13 03:46:06;;;;;;;5.45;3.90;;;;;;;8.04;79.81;100134.94;5105484;28;20024;-66
2022/10/13 03:48:32;;;;;;;7.22;4.32;;;;;;;8.03;80.29;100138.38;5085867;28;20091;-66
2022/10/13 03:50:58;;;;;;;5.55;3.78;;;;;;;8.04;79.84;100140.09;5100115;28;20028;-66
2022/10/13 03:53:24;;;;;;;4.75;3.70;;;;;;;8.07;79.47;100140.09;5094681;28;20092;-66
2022/10/13 03:55:54;;;;;;;9.07;6.53;;;;;;;8.06;80.58;100132.34;5090491;28;20130;-66
2022/10/13 03:58:22;;;;;;;5.22;3.95;;;;;;;8.06;80.51;100142.66;5095039;28;20032;-65
2022/10/13 04:00:48;;;;;;;7.15;4.13;;;;;;;8.09;80.15;100145.22;5084830;28;20047;-66
2022/10/13 04:03:14;;;;;;;7.25;4.35;;;;;;;8.08;80.13;100149.53;5101942;28;20024;-66
2022/10/13 04:05:40;;;;;;;5.80;4.25;;;;;;;8.09;80.00;100146.09;5092407;28;20054;-66
2022/10/13 04:08:06;;;;;;;6.60;4.47;;;;;;;8.01;79.60;100150.44;5092232;28;20328;-66
2022/10/13 04:10:31;;;;;;;6.38;4.18;;;;;;;8.07;79.44;100147.81;5101556;28;20044;-66
2022/10/13 04:12:57;;;;;;;9.50;4.50;;;;;;;8.10;78.98;100150.38;5084649;28;20029;-66
2022/10/13 04:15:22;;;;;;;8.48;5.40;;;;;;;8.06;79.04;100147.81;5101518;28;20047;-66
2022/10/13 04:17:48;;;;;;;10.75;5.07;;;;;;;8.04;79.87;100147.84;5091414;28;20036;-67
2022/10/13 04:20:14;;;;;;;8.20;5.25;;;;;;;8.01;79.92;100155.59;5093123;28;20031;-67
2022/10/13 04:22:39;;;;;;;7.13;4.72;;;;;;;7.98;79.39;100155.59;5100654;28;20107;-66
2022/10/13 04:25:06;;;;;;;10.25;5.40;;;;;;;7.84;80.17;100150.47;5104811;28;20030;-67
2022/10/13 04:27:31;;;;;;;6.43;5.25;;;;;;;7.96;80.00;100159.91;5088375;28;20027;-66
2022/10/13 04:29:58;;;;;;;9.38;5.38;;;;;;;7.99;79.12;100164.19;5090132;28;20587;-67
2022/10/13 04:32:23;;;;;;;6.50;5.10;;;;;;;8.03;78.74;100168.47;5084342;28;20025;-67
2022/10/13 04:34:49;;;;;;;11.65;6.53;;;;;;;7.94;79.42;100170.22;5104297;28;20316;-66
2022/10/13 04:37:15;;;;;;;11.45;5.75;;;;;;;7.88;80.36;100159.94;5101982;28;20043;-67
2022/10/13 04:39:40;;;;;;;9.15;6.43;;;;;;;7.90;79.85;100162.50;5098956;28;20035;-67
2022/10/13 04:42:06;;;;;;;9.48;6.15;;;;;;;7.92;80.57;100178.81;5088591;28;20055;-66
2022/10/13 04:44:31;;;;;;;7.28;5.25;;;;;;;7.94;79.81;100177.94;5083648;28;20324;-68
2022/10/13 04:46:59;;;;;;;9.10;6.03;;;;;;;8.01;79.47;100173.66;5090006;28;20251;-66
2022/10/13 04:49:25;;;;;;;11.75;6.40;;;;;;;8.05;80.35;100172.78;5102360;28;20020;-66
2022/10/13 04:51:51;;;;;;;9.98;6.53;;;;;;;8.06;79.76;100171.03;5082679;28;20051;-66
2022/10/13 04:54:17;;;;;;;11.15;6.93;;;;;;;8.09;79.86;100174.50;5100729;28;20024;-66
2022/10/13 04:56:45;;;;;;;10.00;6.55;;;;;;;8.12;79.89;100177.06;5091751;28;20051;-67
2022/10/13 04:59:11;;;;;;;10.23;6.32;;;;;;;8.17;79.51;100183.91;5085036;28;20352;-66
2022/10/13 05:01:37;;;;;;;9.60;6.47;;;;;;;8.21;79.60;100183.91;5086281;28;20039;-66
2022/10/13 05:04:04;;;;;;;9.88;6.95;;;;;;;8.22;80.21;100180.47;5104163;28;20051;-66
2022/10/13 05:06:34;;;;;;;11.65;7.28;;;;;;;8.09;79.12;100169.31;5084597;28;20043;-66
2022/10/13 05:09:00;;;;;;;8.38;6.13;;;;;;;8.15;79.14;100185.63;5098025;28;20028;-66
2022/10/13 05:11:27;;;;;;;9.10;6.55;;;;;;;8.13;79.18;100189.06;5093393;28;20221;-67
2022/10/13 05:13:54;;;;;;;12.85;6.82;;;;;;;8.00;79.13;100191.72;5088812;28;20042;-68
2022/10/13 05:16:21;;;;;;;8.23;6.30;;;;;;;8.05;78.96;100196.00;5102832;28;20315;-68
2022/10/13 05:18:48;;;;;;;9.80;5.75;;;;;;;8.05;79.47;100200.28;5083558;28;20035;-66
2022/10/13 05:21:19;;;;;;;9.45;6.15;;;;;;;8.13;79.11;100204.53;5099929;28;20028;-67
2022/10/13 05:23:45;;;;;;;9.77;5.70;;;;;;;8.08;78.43;100198.56;5099179;28;20038;-68
2022/10/13 05:26:16;;;;;;;10.32;6.18;;;;;;;8.09;79.38;100187.38;5096170;28;20048;-67
2022/10/13 05:28:43;;;;;;;7.57;6.00;;;;;;;8.18;79.42;100199.38;5086825;28;20032;-68
2022/10/13 05:31:18;;;;;;;10.57;5.72;;;;;;;8.22;78.82;100201.09;5102437;28;20024;-68
2022/10/13 05:33:45;;;;;;;8.35;6.78;;;;;;;8.29;78.38;100194.19;5094758;28;20051;-68
2022/10/13 05:36:20;;;;;;;10.52;6.25;;;;;;;8.20;78.06;100186.47;5103570;28;20109;-68
2022/10/13 05:38:52;;;;;;;9.07;6.20;;;;;;;8.23;78.83;100176.16;5091039;28;20040;-68
2022/10/13 05:41:20;;;;;;;7.47;6.10;;;;;;;8.28;78.91;100188.16;5091171;28;20328;-67
2022/10/13 05:43:45;;;;;;;10.82;5.78;;;;;;;8.42;77.40;100190.69;5099333;28;20052;-67
2022/10/13 05:46:11;;;;;;;9.60;5.50;;;;;;;8.50;77.45;100184.66;5082975;28;20337;-67
2022/10/13 05:48:37;;;;;;;10.07;5.78;;;;;;;8.55;77.57;100193.22;5102149;28;20065;-68
2022/10/13 05:51:16;;;;;;;8.15;5.88;;;;;;;8.60;76.35;100191.50;5089113;28;20221;-66
2022/10/13 05:53:47;;;;;;;8.43;5.82;;;;;;;8.68;76.71;100196.59;5093206;28;20046;-68
2022/10/13 05:56:18;;;;;;;7.85;5.50;;;;;;;8.58;76.43;100186.34;5094210;28;20268;-67
2022/10/13 05:58:50;;;;;;;9.95;5.75;;;;;;;8.67;76.93;100188.00;5085080;28;20020;-66
2022/10/13 06:01:21;;;;;;;8.50;5.78;;;;;;;8.62;76.15;100171.69;5103151;28;20106;-67
2022/10/13 06:03:52;;;;;;;9.85;6.72;;;;;;;8.71;76.97;100188.88;5083081;28;20024;-66
2022/10/13 06:06:17;;;;;;;11.32;6.80;;;;;;;8.63;77.13;100179.41;5092238;28;20312;-67
2022/10/13 06:08:43;;;;;;;11.40;6.88;;;;;;;8.64;77.17;100191.47;5094391;28;20076;-68
2022/10/13 06:11:09;;;;;;;11.93;6.53;;;;;;;8.73;75.88;100190.56;5096242;28;20024;-67
2022/10/13 06:13:34;;;;;;;10.00;6.18;;;;;;;8.75;75.97;100198.28;5085088;28;20028;-68
2022/10/13 06:16:00;;;;;;;13.15;7.22;;;;;;;8.61;77.20;100204.41;5103290;28;20063;-67
2022/10/13 06:18:27;;;;;;;12.85;6.72;;;;;;;8.65;77.20;100189.75;5084652;28;20025;-68
2022/10/13 06:20:53;;;;;;;15.02;7.15;;;;;;;8.71;76.55;100205.22;5087293;28;20023;-69
2022/10/13 06:23:18;;;;;;;11.82;6.75;;;;;;;8.78;76.27;100211.22;5092681;28;20040;-67
2022/10/13 06:25:51;;;;;;;14.73;7.07;;;;;;;8.90;76.68;100205.09;5099815;28;20316;-66
2022/10/13 06:28:18;;;;;;;13.80;8.00;;;;;;;9.30;75.69;100199.66;5081360;28;20126;-68
2022/10/13 06:30:52;;;;;;;12.10;6.72;;;;;;;9.51;74.98;100208.97;5082509;28;20025;-67
2022/10/13 06:33:18;;;;;;;11.38;7.40;;;;;;;9.23;74.66;100204.00;5098573;28;20030;-66
2022/10/13 06:35:44;;;;;;;10.77;6.75;;;;;;;9.45;74.25;100196.94;5103162;28;20036;-68
2022/10/13 06:38:09;;;;;;;9.10;6.88;;;;;;;9.52;73.40;100199.47;5102684;28;20027;-67
2022/10/13 06:40:35;;;;;;;11.02;6.65;;;;;;;9.58;73.55;100208.03;5099550;28;20024;-67
2022/10/13 06:43:01;;;;;;;11.30;7.70;;;;;;;9.57;74.23;100208.91;5081690;28;20108;-67
2022/10/13 06:45:26;;;;;;;12.15;7.10;;;;;;;9.60;73.35;100213.19;5099856;28;20031;-67
2022/10/13 06:47:53;;;;;;;10.50;7.18;;;;;;;9.55;73.88;100209.78;5094180;28;20042;-66
2022/10/13 06:50:20;;;;;;;12.98;7.20;;;;;;;9.59;73.48;100214.06;5087800;28;20036;-67
2022/10/13 06:52:46;;;;;;;10.15;6.97;;;;;;;9.64;73.47;100215.72;5096200;28;20043;-67
2022/10/13 06:55:11;;;;;;;10.05;7.30;;;;;;;9.59;73.93;100219.22;5085192;28;20036;-67
2022/10/13 06:57:37;;;;;;;9.40;6.55;;;;;;;9.44;73.67;100228.84;5098629;28;20032;-67
2022/10/13 07:00:04;;;;;;;10.82;7.82;;;;;;;9.52;73.90;100230.50;5097292;28;20217;-67
2022/10/13 07:02:30;;;;;;;12.88;7.13;;;;;;;9.50;72.97;100218.47;5101404;28;20021;-66
2022/10/13 07:04:56;;;;;;;11.25;7.82;;;;;;;9.56;74.11;100216.69;5090440;28;20036;-68
2022/10/13 07:07:21;;;;;;;12.18;8.07;;;;;;;9.56;73.93;100219.25;5084323;28;20055;-68
2022/10/13 07:09:48;;;;;;;11.80;8.45;;;;;;;9.59;72.91;100211.47;5105680;28;20269;-68
2022/10/13 07:12:14;;;;;;;10.82;7.90;;;;;;;9.57;74.17;100216.66;5089205;28;20127;-68
2022/10/13 07:14:39;;;;;;;10.55;8.20;;;;;;;9.55;73.24;100215.81;5095876;28;20028;-68
2022/10/13 07:17:05;;;;;;;13.48;8.85;;;;;;;9.49;73.54;100216.72;5100271;28;20033;-69
2022/10/13 07:19:31;;;;;;;15.50;9.60;;;;;;;9.52;73.11;100214.97;5102314;28;20028;-69
2022/10/13 07:21:57;;;;;;;12.02;9.00;;;;;;;9.50;73.35;100215.00;5105633;28;20188;-68
2022/10/13 07:24:22;;;;;;;13.85;8.68;;;;;;;9.40;73.19;100208.19;5101825;28;20315;-70
2022/10/13 07:26:48;;;;;;;11.85;8.82;;;;;;;9.62;74.04;100217.47;5094280;28;20214;-68
2022/10/13 07:29:14;;;;;;;17.17;9.27;;;;;;;9.28;73.42;100227.25;5092322;28;20320;-69
2022/10/13 07:31:43;;;;;;;12.68;8.30;;;;;;;9.40;73.36;100221.97;5103271;28;20047;-68
2022/10/13 07:34:08;;;;;;;13.80;8.35;;;;;;;9.55;73.56;100214.94;5100412;28;20088;-67
2022/10/13 07:36:34;;;;;;;13.88;8.43;;;;;;;9.49;73.82;100216.72;5087077;28;20107;-69
2022/10/13 07:39:01;;;;;;;16.88;8.48;;;;;;;9.69;72.73;100218.31;5097201;28;20114;-68
2022/10/13 07:41:28;;;;;;;14.45;8.70;;;;;;;9.87;73.68;100221.56;5096260;28;20032;-68
2022/10/13 07:43:57;;;;;;;17.60;8.20;;;;;;;9.94;72.90;100228.41;5087911;28;20043;-68
2022/10/13 07:46:23;;;;;;;15.68;8.18;;;;;;;10.01;72.38;100230.91;5105568;28;20032;-69
2022/10/13 07:48:50;;;;;;;13.85;8.52;;;;;;;10.05;72.51;100230.84;5101820;28;20389;-69
2022/10/13 07:51:16;;;;;;;15.52;8.48;;;;;;;9.97;72.38;100229.22;5089974;28;20044;-68
2022/10/13 07:53:42;;;;;;;16.40;8.45;;;;;;;9.95;72.14;100227.53;5088863;28;20028;-68
2022/10/13 07:56:10;;;;;;;14.10;8.25;;;;;;;10.08;72.12;100216.16;5093335;28;20027;-68
2022/10/13 07:58:37;;;;;;;14.10;9.15;;;;;;;10.24;72.72;100222.03;5103236;28;20050;-68
2022/10/13 08:01:03;;;;;;;13.70;7.82;;;;;;;10.28;70.75;100230.63;5093016;28;20324;-68
2022/10/13 08:03:30;;;;;;;12.15;7.97;;;;;;;10.36;69.94;100231.41;5074832;28;20032;-68
2022/10/13 08:05:58;;;;;;;23.65;9.95;;;;;;;10.38;70.22;100239.19;5093394;28;20020;-68
2022/10/13 08:08:23;;;;;;;14.70;9.57;;;;;;;10.57;70.11;100242.41;5093632;28;20020;-69
2022/10/13 08:10:49;;;;;;;17.02;8.05;;;;;;;10.41;69.24;100241.72;5094697;28;20212;-68
2022/10/13 08:13:15;;;;;;;13.90;7.90;;;;;;;10.35;70.20;100240.06;5093696;28;20031;-68
2022/10/13 08:15:42;;;;;;;12.23;7.20;;;;;;;10.41;70.18;100244.31;5092602;28;20031;-68
2022/10/13 08:18:09;;;;;;;13.73;8.25;;;;;;;10.35;70.32;100247.84;5094022;28;20020;-68
2022/10/13 08:20:39;;;;;;;8.85;7.65;;;;;;;10.11;70.49;100246.34;5093259;28;20020;-68
2022/10/13 08:23:04;;;;;;;15.13;9.25;;;;;;;10.18;70.87;100248.00;5094944;28;20028;-67
2022/10/13 08:25:35;;;;;;;10.63;8.80;;;;;;;10.16;70.95;100252.31;5093721;28;20070;-68
2022/10/13 08:28:01;;;;;;;15.90;8.87;;;;;;;10.09;71.58;100259.31;5094619;28;20032;-68
2022/10/13 08:30:26;;;;;;;12.35;9.13;;;;;;;9.96;71.78;100258.56;5091910;28;20059;-68
2022/10/13 08:32:52;;;;;;;15.30;9.50;;;;;;;9.96;72.69;100255.97;5093846;28;20054;-68
2022/10/13 08:35:18;;;;;;;12.63;9.40;;;;;;;9.89;72.21;100258.63;5094651;28;20312;-68
2022/10/13 08:37:43;;;;;;;17.35;11.57;;;;;;;9.91;72.25;100255.16;5094939;28;20020;-69
2022/10/13 08:40:18;;;;;;;18.77;12.32;;;;;;;9.81;71.34;100249.19;5092843;28;20312;-68
2022/10/13 08:42:45;;;;;;;16.25;12.50;;;;;;;9.92;71.78;100256.88;5092997;28;20275;-68
2022/10/13 08:45:24;;;;;;;17.58;12.07;;;;;;;9.83;71.32;100229.38;5092556;28;20369;-68
2022/10/13 08:47:58;;;;;;;14.48;11.27;;;;;;;9.97;72.40;100244.72;5093828;28;20028;-68
2022/10/13 08:50:28;;;;;;;19.10;11.65;;;;;;;10.02;71.60;100235.22;5085759;28;20309;-69
2022/10/13 08:53:01;;;;;;;19.95;11.95;;;;;;;10.44;71.13;100245.13;5092589;28;20036;-69
2022/10/13 08:55:34;;;;;;;14.90;10.68;;;;;;;11.76;66.72;100241.50;5093019;28;20070;-69
2022/10/13 08:58:04;;;;;;;13.57;10.32;;;;;;;12.30;66.38;100244.88;5084008;28;20047;-69
2022/10/13 09:00:30;;;;;;;12.25;9.07;;;;;;;11.98;66.62;100251.53;5100149;28;20046;-68
2022/10/13 09:03:24;;;;;;;11.45;8.95;;;;;;;11.31;66.10;100241.38;5092319;28;20317;-69
2022/10/13 09:06:15;;;;;;;10.45;7.75;;;;;;;11.55;64.82;100234.94;5087449;28;20028;-69
2022/10/13 09:08:49;;;;;;;13.48;8.25;;;;;;;11.67;67.10;100241.66;5093365;28;20028;-70
2022/10/13 09:11:14;;;;;;;9.40;7.38;;;;;;;11.74;65.89;100243.25;5097948;28;20032;-69
2022/10/13 09:13:41;;;;;;;9.85;7.22;;;;;;;12.31;65.34;100234.44;5084697;28;20190;-69
2022/10/13 09:16:07;;;;;;;14.38;7.70;;;;;;;12.40;64.49;100243.84;5104003;28;20023;-68
2022/10/13 09:18:33;;;;;;;12.45;6.70;;;;;;;12.05;64.68;100253.97;5085877;28;20025;-67
2022/10/13 09:21:20;;;;;;;9.25;6.45;;;;;;;11.88;63.47;100251.66;5095558;28;20032;-68
2022/10/13 09:23:51;;;;;;;6.55;5.63;;;;;;;11.69;64.57;100230.38;5098444;28;20324;-68
2022/10/13 09:26:24;;;;;;;11.02;6.13;;;;;;;11.36;66.00;100234.41;5097223;28;20212;-68
2022/10/13 09:28:51;;;;;;;9.93;5.68;;;;;;;11.43;66.14;100242.91;5085618;28;20245;-68
2022/10/13 09:31:26;;;;;;;11.13;6.47;;;;;;;11.43;65.61;100238.59;5103731;28;20031;-68
2022/10/13 09:34:12;;;;;;;10.00;7.15;;;;;;;11.53;65.57;100250.53;5090849;28;20145;-68
2022/10/13 09:36:37;;;;;;;7.43;5.80;;;;;;;11.49;65.50;100246.28;5092389;28;20039;-68
2022/10/13 09:39:13;;;;;;;10.50;5.78;;;;;;;11.47;65.28;100250.63;5085938;28;20055;-70
2022/10/13 09:41:41;;;;;;;10.30;6.57;;;;;;;11.55;64.83;100240.13;5102661;28;20170;-69
2022/10/13 09:44:15;;;;;;;11.20;7.88;;;;;;;11.50;66.15;100245.41;5103375;28;20030;-69
2022/10/13 09:47:01;;;;;;;8.85;6.05;;;;;;;11.29;64.41;100253.53;5102539;28;20359;-69
2022/10/13 09:49:33;;;;;;;9.10;5.82;;;;;;;11.05;64.82;100247.81;5096650;28;20032;-69
2022/10/13 09:52:15;;;;;;;8.90;6.40;;;;;;;10.93;65.51;100238.47;5085671;28;20091;-68
2022/10/13 09:54:51;;;;;;;9.30;6.72;;;;;;;10.96;65.61;100247.91;5082700;28;20361;-67
2022/10/13 09:57:23;;;;;;;6.75;6.00;;;;;;;11.00;66.52;100245.28;5097294;28;20220;-68
2022/10/13 10:00:01;;;;;;;11.43;7.00;;;;;;;10.86;66.85;100245.47;5096116;28;20164;-68
2022/10/13 10:02:37;;;;;;;7.43;5.80;;;;;;;10.87;65.88;100244.59;5095351;28;20036;-69
2022/10/13 10:05:15;;;;;;;8.52;6.38;;;;;;;10.66;66.61;100234.50;5088743;28;20098;-69
2022/10/13 10:07:41;;;;;;;8.77;5.97;;;;;;;10.75;65.98;100231.81;5093255;28;20036;-69
2022/10/13 10:10:32;;;;;;;7.53;6.00;;;;;;;10.93;66.24;100242.78;5084108;28;20028;-69
2022/10/13 10:12:59;;;;;;;12.70;6.15;;;;;;;10.98;66.12;100225.44;5094525;28;20028;-68
2022/10/13 10:15:37;;;;;;;8.20;6.18;;;;;;;10.87;66.29;100230.78;5098589;28;20019;-69
2022/10/13 10:18:12;;;;;;;7.13;6.40;;;;;;;11.12;66.13;100231.28;5089629;28;20031;-70
2022/10/13 10:21:06;;;;;;;9.82;6.07;;;;;;;11.13;65.50;100220.03;5090528;28;20080;-69
2022/10/13 10:23:52;;;;;;;8.52;5.55;;;;;;;11.12;65.85;100244.25;5095190;28;20024;-69
2022/10/13 10:26:28;;;;;;;8.13;5.10;;;;;;;10.97;65.89;100219.38;5097016;28;20027;-69
2022/10/13 10:29:24;;;;;;;11.02;4.95;;;;;;;11.04;66.03;100246.97;5087005;28;20048;-69
2022/10/13 10:32:03;;;;;;;6.05;5.45;;;;;;;10.99;66.40;100242.72;5105042;28;20043;-68
2022/10/13 10:34:36;;;;;;;8.77;5.25;;;;;;;11.00;66.80;100240.09;5100180;28;20099;-69
2022/10/13 10:37:07;;;;;;;6.40;5.20;;;;;;;11.02;67.29;100246.09;5108537;28;20231;-69
2022/10/13 10:39:45;;;;;;;8.45;6.45;;;;;;;11.02;66.42;100238.34;5110624;28;20024;-69
2022/10/13 10:42:43;;;;;;;11.45;5.38;;;;;;;10.75;66.54;100246.50;5093535;28;20044;-68
2022/10/13 10:45:33;;;;;;;9.02;5.28;;;;;;;10.70;66.72;100238.75;5081423;28;20016;-69
2022/10/13 10:48:19;;;;;;;9.95;5.10;;;;;;;10.74;67.14;100237.84;5098383;28;20316;-69
2022/10/13 10:50:45;;;;;;;8.40;4.95;;;;;;;10.62;66.17;100244.06;5097803;28;20031;-69
2022/10/13 10:53:30;;;;;;;8.50;4.57;;;;;;;10.55;65.71;100257.13;5100617;28;20244;-68
2022/10/13 10:56:14;;;;;;;10.00;4.18;;;;;;;10.67;66.34;100251.75;5088652;28;20021;-68
2022/10/13 10:58:55;;;;;;;8.27;4.20;;;;;;;10.75;65.47;100236.97;5105636;28;20058;-68
2022/10/13 11:01:45;;;;;;;9.05;4.53;;;;;;;10.60;64.92;100240.59;5099785;28;20032;-70
2022/10/13 11:04:34;;;;;;;8.20;4.38;;;;;;;10.69;65.72;100250.88;5089828;28;20320;-69
2022/10/13 11:07:00;;;;;;;8.35;4.18;;;;;;;10.93;66.10;100253.16;5082977;28;20136;-68
2022/10/13 11:09:41;;;;;;;6.53;4.30;;;;;;;10.83;65.11;100248.09;5096499;28;20208;-69
2022/10/13 11:12:46;;;;;;;5.50;4.32;;;;;;;10.82;65.08;100251.56;5093815;28;20066;-69
2022/10/13 11:15:15;;;;;;;12.23;4.78;;;;;;;10.91;64.68;100254.91;5069822;28;20092;-69
2022/10/13 11:17:41;;;;;;;6.88;3.67;;;;;;;10.91;64.02;100253.19;5095092;28;20046;-67
2022/10/13 11:20:19;;;;;;;5.35;3.90;;;;;;;10.85;63.82;100253.28;5092343;28;20028;-68
2022/10/13 11:23:00;;;;;;;4.82;3.50;;;;;;;10.86;63.33;100255.00;5093127;28;20047;-68
2022/10/13 11:25:40;;;;;;;7.60;4.10;;;;;;;10.91;63.30;100257.50;5090226;28;20047;-69
2022/10/13 11:28:41;;;;;;;6.40;3.50;;;;;;;10.92;62.87;100251.47;5101539;28;20029;-69
2022/10/13 11:31:12;;;;;;;6.82;3.65;;;;;;;10.93;62.23;100254.03;5064094;28;20032;-68
2022/10/13 11:33:38;;;;;;;5.25;3.00;;;;;;;10.73;62.63;100262.06;5101765;28;20079;-70
2022/10/13 11:36:28;;;;;;;6.43;2.95;;;;;;;10.85;61.92;100245.50;5097635;28;20028;-69
2022/10/13 11:39:28;;;;;;;5.97;3.55;;;;;;;10.69;62.39;100257.81;5095210;28;20051;-68
2022/10/13 11:42:00;;;;;;;4.22;3.22;;;;;;;10.53;62.92;100242.44;5085503;28;20027;-68
2022/10/13 11:44:44;;;;;;;5.97;3.53;;;;;;;10.75;63.30;100252.53;5089949;28;20047;-69